Hams Station, California
Current Conditions -  °F | °C
As of 1:35 AM on Thursday 27 Nov 2014 (Local Time) from KPVF Reporting Station
Clear Clear  
Wind Chill: 61°   Ceiling: Unl
Heat Index: 61°   Visibility: 10mi
Dew Point: 28°   Wind: 6mph
Humidity: 29%   Direction: 110°ESE
Pressure: 30.26"   Gusts: NA
Location:  38.5644°N, 120.32°W
Report Text: KPVF 270935Z AUTO 11005KT 10SM CLR 16/M02 A3026 RMK AO1
Loading
Personal Weather Stations






























Interactive Weather Map New forecast layout! Learn more

10-Day Weather Forecast

Advertisements
Track Severe Weather on mobile